sensor_id;sensor_type;location;lat;lon;timestamp;P1;durP1;ratioP1;P2;durP2;ratioP2
28926;SDS011;16038;47.692;9.400;2024-02-15T00:01:15;18.33;;;7.63;;
28926;SDS011;16038;47.692;9.400;2024-02-15T00:03:41;21.10;;;8.35;;
28926;SDS011;16038;47.692;9.400;2024-02-15T00:06:06;15.55;;;8.40;;
28926;SDS011;16038;47.692;9.400;2024-02-15T00:08:32;15.75;;;7.97;;
28926;SDS011;16038;47.692;9.400;2024-02-15T00:10:58;17.27;;;8.90;;
28926;SDS011;16038;47.692;9.400;2024-02-15T00:13:23;17.45;;;8.27;;
28926;SDS011;16038;47.692;9.400;2024-02-15T00:15:48;15.88;;;8.80;;
28926;SDS011;16038;47.692;9.400;2024-02-15T00:18:15;15.25;;;8.57;;
28926;SDS011;16038;47.692;9.400;2024-02-15T00:20:41;14.10;;;8.25;;
28926;SDS011;16038;47.692;9.400;2024-02-15T00:23:06;15.15;;;8.75;;
28926;SDS011;16038;47.692;9.400;2024-02-15T00:25:32;13.57;;;7.88;;
28926;SDS011;16038;47.692;9.400;2024-02-15T00:27:58;16.10;;;8.43;;
28926;SDS011;16038;47.692;9.400;2024-02-15T00:30:27;12.70;;;7.40;;
28926;SDS011;16038;47.692;9.400;2024-02-15T00:32:53;11.57;;;7.45;;
28926;SDS011;16038;47.692;9.400;2024-02-15T00:35:19;16.02;;;8.27;;
28926;SDS011;16038;47.692;9.400;2024-02-15T00:37:44;18.13;;;8.05;;
28926;SDS011;16038;47.692;9.400;2024-02-15T00:40:10;16.25;;;8.13;;
28926;SDS011;16038;47.692;9.400;2024-02-15T00:42:36;14.65;;;8.13;;
28926;SDS011;16038;47.692;9.400;2024-02-15T00:45:03;14.68;;;7.97;;
28926;SDS011;16038;47.692;9.400;2024-02-15T00:47:29;16.42;;;7.32;;
28926;SDS011;16038;47.692;9.400;2024-02-15T00:49:55;14.38;;;8.20;;
28926;SDS011;16038;47.692;9.400;2024-02-15T00:52:20;14.75;;;7.80;;
28926;SDS011;16038;47.692;9.400;2024-02-15T00:54:46;15.18;;;7.47;;
28926;SDS011;16038;47.692;9.400;2024-02-15T00:57:12;12.25;;;7.45;;
28926;SDS011;16038;47.692;9.400;2024-02-15T00:59:37;14.15;;;7.68;;
28926;SDS011;16038;47.692;9.400;2024-02-15T01:02:03;13.85;;;7.22;;
28926;SDS011;16038;47.692;9.400;2024-02-15T01:04:29;12.68;;;7.90;;
28926;SDS011;16038;47.692;9.400;2024-02-15T01:06:54;12.90;;;7.00;;
28926;SDS011;16038;47.692;9.400;2024-02-15T01:09:21;16.02;;;7.97;;
28926;SDS011;16038;47.692;9.400;2024-02-15T01:11:46;12.10;;;6.70;;
28926;SDS011;16038;47.692;9.400;2024-02-15T01:14:12;16.20;;;7.53;;
28926;SDS011;16038;47.692;9.400;2024-02-15T01:16:38;16.80;;;7.78;;
28926;SDS011;16038;47.692;9.400;2024-02-15T01:19:03;14.40;;;7.50;;
28926;SDS011;16038;47.692;9.400;2024-02-15T01:21:30;15.40;;;6.70;;
28926;SDS011;16038;47.692;9.400;2024-02-15T01:23:55;13.48;;;7.22;;
28926;SDS011;16038;47.692;9.400;2024-02-15T01:26:21;13.48;;;7.22;;
28926;SDS011;16038;47.692;9.400;2024-02-15T01:28:46;17.13;;;7.80;;
28926;SDS011;16038;47.692;9.400;2024-02-15T01:31:12;12.98;;;7.70;;
28926;SDS011;16038;47.692;9.400;2024-02-15T01:33:38;12.38;;;6.88;;
28926;SDS011;16038;47.692;9.400;2024-02-15T01:36:03;16.27;;;7.30;;
28926;SDS011;16038;47.692;9.400;2024-02-15T01:38:29;11.15;;;7.00;;
28926;SDS011;16038;47.692;9.400;2024-02-15T01:40:55;9.82;;;6.03;;
28926;SDS011;16038;47.692;9.400;2024-02-15T01:43:20;11.07;;;6.55;;
28926;SDS011;16038;47.692;9.400;2024-02-15T01:45:46;13.38;;;7.05;;
28926;SDS011;16038;47.692;9.400;2024-02-15T01:48:14;13.70;;;5.95;;
28926;SDS011;16038;47.692;9.400;2024-02-15T01:50:40;13.35;;;6.43;;
28926;SDS011;16038;47.692;9.400;2024-02-15T01:53:07;10.95;;;6.15;;
28926;SDS011;16038;47.692;9.400;2024-02-15T01:55:33;13.25;;;6.40;;
28926;SDS011;16038;47.692;9.400;2024-02-15T01:58:00;11.55;;;6.68;;
28926;SDS011;16038;47.692;9.400;2024-02-15T02:00:27;13.30;;;7.70;;
28926;SDS011;16038;47.692;9.400;2024-02-15T02:02:52;12.13;;;6.80;;
28926;SDS011;16038;47.692;9.400;2024-02-15T02:05:19;15.10;;;6.72;;
28926;SDS011;16038;47.692;9.400;2024-02-15T02:07:45;16.10;;;6.90;;
28926;SDS011;16038;47.692;9.400;2024-02-15T02:10:11;12.23;;;6.93;;
28926;SDS011;16038;47.692;9.400;2024-02-15T02:12:40;9.98;;;6.65;;
28926;SDS011;16038;47.692;9.400;2024-02-15T02:15:06;15.38;;;7.35;;
28926;SDS011;16038;47.692;9.400;2024-02-15T02:17:32;11.98;;;6.93;;
28926;SDS011;16038;47.692;9.400;2024-02-15T02:19:59;12.88;;;7.18;;
28926;SDS011;16038;47.692;9.400;2024-02-15T02:22:24;12.18;;;6.70;;
28926;SDS011;16038;47.692;9.400;2024-02-15T02:25:05;10.93;;;7.05;;
28926;SDS011;16038;47.692;9.400;2024-02-15T02:27:33;13.40;;;7.53;;
28926;SDS011;16038;47.692;9.400;2024-02-15T02:29:59;11.40;;;7.30;;
28926;SDS011;16038;47.692;9.400;2024-02-15T02:32:25;10.40;;;6.68;;
28926;SDS011;16038;47.692;9.400;2024-02-15T02:34:52;14.30;;;7.68;;
28926;SDS011;16038;47.692;9.400;2024-02-15T02:37:23;11.48;;;6.60;;
28926;SDS011;16038;47.692;9.400;2024-02-15T02:39:50;10.70;;;6.70;;
28926;SDS011;16038;47.692;9.400;2024-02-15T02:42:15;10.30;;;6.72;;
28926;SDS011;16038;47.692;9.400;2024-02-15T02:44:41;15.90;;;6.95;;
28926;SDS011;16038;47.692;9.400;2024-02-15T02:47:06;10.45;;;6.72;;
28926;SDS011;16038;47.692;9.400;2024-02-15T02:49:32;10.23;;;6.25;;
28926;SDS011;16038;47.692;9.400;2024-02-15T02:52:00;11.93;;;5.95;;
28926;SDS011;16038;47.692;9.400;2024-02-15T02:54:25;12.20;;;6.03;;
28926;SDS011;16038;47.692;9.400;2024-02-15T02:56:50;14.80;;;5.95;;
28926;SDS011;16038;47.692;9.400;2024-02-15T02:59:16;10.68;;;5.75;;
28926;SDS011;16038;47.692;9.400;2024-02-15T03:01:41;11.85;;;6.22;;
28926;SDS011;16038;47.692;9.400;2024-02-15T03:04:07;10.77;;;6.20;;
28926;SDS011;16038;47.692;9.400;2024-02-15T03:06:33;11.60;;;6.38;;
28926;SDS011;16038;47.692;9.400;2024-02-15T03:08:59;10.88;;;6.32;;
28926;SDS011;16038;47.692;9.400;2024-02-15T03:11:24;9.25;;;5.43;;
28926;SDS011;16038;47.692;9.400;2024-02-15T03:13:50;11.57;;;6.15;;
28926;SDS011;16038;47.692;9.400;2024-02-15T03:16:15;9.68;;;5.78;;
28926;SDS011;16038;47.692;9.400;2024-02-15T03:18:41;8.60;;;5.70;;
28926;SDS011;16038;47.692;9.400;2024-02-15T03:21:08;7.32;;;5.07;;
28926;SDS011;16038;47.692;9.400;2024-02-15T03:23:36;8.45;;;5.53;;
28926;SDS011;16038;47.692;9.400;2024-02-15T03:26:02;9.32;;;5.63;;
28926;SDS011;16038;47.692;9.400;2024-02-15T03:28:28;10.15;;;5.63;;
28926;SDS011;16038;47.692;9.400;2024-02-15T03:30:54;8.85;;;5.65;;
28926;SDS011;16038;47.692;9.400;2024-02-15T03:33:21;9.18;;;5.32;;
28926;SDS011;16038;47.692;9.400;2024-02-15T03:35:51;8.32;;;5.63;;
28926;SDS011;16038;47.692;9.400;2024-02-15T03:38:16;13.48;;;5.90;;
28926;SDS011;16038;47.692;9.400;2024-02-15T03:40:42;10.18;;;5.63;;
28926;SDS011;16038;47.692;9.400;2024-02-15T03:43:08;9.25;;;5.57;;
28926;SDS011;16038;47.692;9.400;2024-02-15T03:45:33;10.98;;;5.72;;
28926;SDS011;16038;47.692;9.400;2024-02-15T03:47:59;8.95;;;5.72;;
28926;SDS011;16038;47.692;9.400;2024-02-15T03:50:24;8.73;;;5.40;;
28926;SDS011;16038;47.692;9.400;2024-02-15T03:52:50;10.77;;;6.03;;
28926;SDS011;16038;47.692;9.400;2024-02-15T03:55:16;9.02;;;5.22;;
28926;SDS011;16038;47.692;9.400;2024-02-15T03:57:41;9.95;;;6.03;;
28926;SDS011;16038;47.692;9.400;2024-02-15T04:00:09;9.68;;;5.53;;
28926;SDS011;16038;47.692;9.400;2024-02-15T04:02:36;9.27;;;4.95;;
28926;SDS011;16038;47.692;9.400;2024-02-15T04:05:02;10.82;;;5.65;;
28926;SDS011;16038;47.692;9.400;2024-02-15T04:07:30;9.05;;;5.07;;
28926;SDS011;16038;47.692;9.400;2024-02-15T04:09:56;8.52;;;5.20;;
28926;SDS011;16038;47.692;9.400;2024-02-15T04:12:23;9.40;;;5.10;;
28926;SDS011;16038;47.692;9.400;2024-02-15T04:14:49;10.18;;;5.25;;
28926;SDS011;16038;47.692;9.400;2024-02-15T04:17:16;12.80;;;6.35;;
28926;SDS011;16038;47.692;9.400;2024-02-15T04:19:45;9.43;;;5.78;;
28926;SDS011;16038;47.692;9.400;2024-02-15T04:22:15;11.85;;;5.82;;
28926;SDS011;16038;47.692;9.400;2024-02-15T04:24:42;8.23;;;5.10;;
28926;SDS011;16038;47.692;9.400;2024-02-15T04:27:08;7.93;;;5.47;;
28926;SDS011;16038;47.692;9.400;2024-02-15T04:29:36;8.65;;;5.00;;
28926;SDS011;16038;47.692;9.400;2024-02-15T04:32:06;9.97;;;5.30;;
28926;SDS011;16038;47.692;9.400;2024-02-15T04:34:34;9.93;;;5.25;;
28926;SDS011;16038;47.692;9.400;2024-02-15T04:36:59;9.35;;;4.82;;
28926;SDS011;16038;47.692;9.400;2024-02-15T04:39:26;9.02;;;4.82;;
28926;SDS011;16038;47.692;9.400;2024-02-15T04:41:55;10.33;;;5.23;;
28926;SDS011;16038;47.692;9.400;2024-02-15T04:44:20;9.60;;;4.97;;
28926;SDS011;16038;47.692;9.400;2024-02-15T04:46:48;8.45;;;4.80;;
28926;SDS011;16038;47.692;9.400;2024-02-15T04:49:17;8.77;;;5.05;;
28926;SDS011;16038;47.692;9.400;2024-02-15T04:51:42;8.27;;;5.05;;
28926;SDS011;16038;47.692;9.400;2024-02-15T04:54:09;8.82;;;5.32;;
28926;SDS011;16038;47.692;9.400;2024-02-15T04:56:38;13.25;;;4.85;;
28926;SDS011;16038;47.692;9.400;2024-02-15T04:59:07;10.05;;;5.07;;
28926;SDS011;16038;47.692;9.400;2024-02-15T05:01:42;11.52;;;4.90;;
28926;SDS011;16038;47.692;9.400;2024-02-15T05:04:09;7.65;;;4.65;;
28926;SDS011;16038;47.692;9.400;2024-02-15T05:06:35;6.78;;;4.80;;
28926;SDS011;16038;47.692;9.400;2024-02-15T05:09:02;14.32;;;5.50;;
28926;SDS011;16038;47.692;9.400;2024-02-15T05:11:32;10.30;;;4.95;;
28926;SDS011;16038;47.692;9.400;2024-02-15T05:14:02;10.27;;;5.97;;
28926;SDS011;16038;47.692;9.400;2024-02-15T05:16:30;7.70;;;4.97;;
28926;SDS011;16038;47.692;9.400;2024-02-15T05:18:56;9.57;;;5.40;;
28926;SDS011;16038;47.692;9.400;2024-02-15T05:21:22;7.50;;;4.93;;
28926;SDS011;16038;47.692;9.400;2024-02-15T05:23:47;9.52;;;5.07;;
28926;SDS011;16038;47.692;9.400;2024-02-15T05:26:13;8.65;;;4.97;;
28926;SDS011;16038;47.692;9.400;2024-02-15T05:28:41;10.88;;;5.07;;
28926;SDS011;16038;47.692;9.400;2024-02-15T05:33:39;12.27;;;4.90;;
28926;SDS011;16038;47.692;9.400;2024-02-15T05:36:08;13.52;;;5.00;;
28926;SDS011;16038;47.692;9.400;2024-02-15T05:38:37;11.30;;;5.22;;
28926;SDS011;16038;47.692;9.400;2024-02-15T05:41:02;11.70;;;5.72;;
28926;SDS011;16038;47.692;9.400;2024-02-15T05:43:28;9.82;;;5.78;;
28926;SDS011;16038;47.692;9.400;2024-02-15T05:45:54;11.60;;;6.38;;
28926;SDS011;16038;47.692;9.400;2024-02-15T05:48:19;10.35;;;6.53;;
28926;SDS011;16038;47.692;9.400;2024-02-15T05:50:45;8.10;;;5.90;;
28926;SDS011;16038;47.692;9.400;2024-02-15T05:53:11;10.85;;;6.15;;
28926;SDS011;16038;47.692;9.400;2024-02-15T05:55:37;10.43;;;6.25;;
28926;SDS011;16038;47.692;9.400;2024-02-15T05:58:05;10.63;;;6.15;;
28926;SDS011;16038;47.692;9.400;2024-02-15T06:00:34;11.48;;;5.43;;
28926;SDS011;16038;47.692;9.400;2024-02-15T06:02:59;12.02;;;6.35;;
28926;SDS011;16038;47.692;9.400;2024-02-15T06:05:28;11.80;;;5.60;;
28926;SDS011;16038;47.692;9.400;2024-02-15T06:07:53;9.48;;;6.05;;
28926;SDS011;16038;47.692;9.400;2024-02-15T06:10:19;11.65;;;6.03;;
28926;SDS011;16038;47.692;9.400;2024-02-15T06:12:44;8.68;;;5.63;;
28926;SDS011;16038;47.692;9.400;2024-02-15T06:15:10;9.18;;;5.32;;
28926;SDS011;16038;47.692;9.400;2024-02-15T06:17:40;10.63;;;5.57;;
28926;SDS011;16038;47.692;9.400;2024-02-15T06:20:09;12.80;;;5.80;;
28926;SDS011;16038;47.692;9.400;2024-02-15T06:22:38;9.30;;;5.32;;
28926;SDS011;16038;47.692;9.400;2024-02-15T06:25:04;15.45;;;5.85;;
28926;SDS011;16038;47.692;9.400;2024-02-15T06:27:30;11.63;;;5.20;;
28926;SDS011;16038;47.692;9.400;2024-02-15T06:29:57;12.48;;;5.68;;
28926;SDS011;16038;47.692;9.400;2024-02-15T06:32:42;10.27;;;5.18;;
28926;SDS011;16038;47.692;9.400;2024-02-15T06:35:26;9.80;;;5.25;;
28926;SDS011;16038;47.692;9.400;2024-02-15T06:38:10;10.15;;;5.30;;
28926;SDS011;16038;47.692;9.400;2024-02-15T06:40:54;7.20;;;4.18;;
28926;SDS011;16038;47.692;9.400;2024-02-15T06:43:20;14.18;;;5.18;;
28926;SDS011;16038;47.692;9.400;2024-02-15T06:45:46;15.82;;;5.63;;
28926;SDS011;16038;47.692;9.400;2024-02-15T06:48:11;18.33;;;8.13;;
28926;SDS011;16038;47.692;9.400;2024-02-15T06:50:37;19.00;;;8.02;;
28926;SDS011;16038;47.692;9.400;2024-02-15T06:53:03;9.93;;;6.55;;
28926;SDS011;16038;47.692;9.400;2024-02-15T06:55:28;11.63;;;6.22;;
28926;SDS011;16038;47.692;9.400;2024-02-15T06:57:54;12.27;;;7.15;;
28926;SDS011;16038;47.692;9.400;2024-02-15T07:00:20;15.73;;;7.45;;
28926;SDS011;16038;47.692;9.400;2024-02-15T07:02:46;13.50;;;7.03;;
28926;SDS011;16038;47.692;9.400;2024-02-15T07:05:13;17.65;;;6.55;;
28926;SDS011;16038;47.692;9.400;2024-02-15T07:07:39;11.45;;;6.57;;
28926;SDS011;16038;47.692;9.400;2024-02-15T07:10:05;14.10;;;5.97;;
28926;SDS011;16038;47.692;9.400;2024-02-15T07:12:31;13.70;;;5.97;;
28926;SDS011;16038;47.692;9.400;2024-02-15T07:14:57;23.58;;;6.18;;
28926;SDS011;16038;47.692;9.400;2024-02-15T07:17:23;15.68;;;6.07;;
28926;SDS011;16038;47.692;9.400;2024-02-15T07:19:48;13.75;;;5.35;;
28926;SDS011;16038;47.692;9.400;2024-02-15T07:22:16;11.75;;;6.05;;
28926;SDS011;16038;47.692;9.400;2024-02-15T07:24:42;10.60;;;5.55;;
28926;SDS011;16038;47.692;9.400;2024-02-15T07:27:07;13.10;;;4.97;;
28926;SDS011;16038;47.692;9.400;2024-02-15T07:29:33;8.70;;;5.68;;
28926;SDS011;16038;47.692;9.400;2024-02-15T07:32:05;7.93;;;4.60;;
28926;SDS011;16038;47.692;9.400;2024-02-15T07:34:31;11.35;;;4.80;;
28926;SDS011;16038;47.692;9.400;2024-02-15T07:36:58;9.38;;;4.70;;
28926;SDS011;16038;47.692;9.400;2024-02-15T07:39:24;19.55;;;6.43;;
28926;SDS011;16038;47.692;9.400;2024-02-15T07:41:52;8.13;;;5.22;;
28926;SDS011;16038;47.692;9.400;2024-02-15T07:44:18;8.60;;;5.00;;
28926;SDS011;16038;47.692;9.400;2024-02-15T07:46:43;16.17;;;4.60;;
28926;SDS011;16038;47.692;9.400;2024-02-15T07:49:10;9.85;;;4.50;;
28926;SDS011;16038;47.692;9.400;2024-02-15T07:51:36;10.63;;;3.95;;
28926;SDS011;16038;47.692;9.400;2024-02-15T07:54:02;7.13;;;4.03;;
28926;SDS011;16038;47.692;9.400;2024-02-15T07:56:28;6.72;;;3.95;;
28926;SDS011;16038;47.692;9.400;2024-02-15T07:58:54;13.77;;;4.50;;
28926;SDS011;16038;47.692;9.400;2024-02-15T08:01:19;10.13;;;5.05;;
28926;SDS011;16038;47.692;9.400;2024-02-15T08:03:48;14.50;;;5.40;;
28926;SDS011;16038;47.692;9.400;2024-02-15T08:06:14;16.40;;;5.60;;
28926;SDS011;16038;47.692;9.400;2024-02-15T08:08:43;15.63;;;5.28;;
28926;SDS011;16038;47.692;9.400;2024-02-15T08:11:11;16.80;;;6.70;;
28926;SDS011;16038;47.692;9.400;2024-02-15T08:13:43;17.15;;;7.68;;
28926;SDS011;16038;47.692;9.400;2024-02-15T08:16:09;20.48;;;8.88;;
28926;SDS011;16038;47.692;9.400;2024-02-15T08:18:36;23.13;;;10.15;;
28926;SDS011;16038;47.692;9.400;2024-02-15T08:21:02;26.70;;;10.70;;
28926;SDS011;16038;47.692;9.400;2024-02-15T08:23:29;17.92;;;7.95;;
28926;SDS011;16038;47.692;9.400;2024-02-15T08:25:54;30.60;;;10.40;;
28926;SDS011;16038;47.692;9.400;2024-02-15T08:28:20;26.98;;;11.80;;
28926;SDS011;16038;47.692;9.400;2024-02-15T08:30:46;22.60;;;8.82;;
28926;SDS011;16038;47.692;9.400;2024-02-15T08:33:12;23.90;;;12.55;;
28926;SDS011;16038;47.692;9.400;2024-02-15T08:35:37;17.65;;;13.50;;
28926;SDS011;16038;47.692;9.400;2024-02-15T08:38:05;14.98;;;12.38;;
28926;SDS011;16038;47.692;9.400;2024-02-15T08:40:31;11.55;;;8.48;;
28926;SDS011;16038;47.692;9.400;2024-02-15T08:42:57;10.45;;;7.38;;
28926;SDS011;16038;47.692;9.400;2024-02-15T08:45:22;12.88;;;5.88;;
28926;SDS011;16038;47.692;9.400;2024-02-15T08:47:48;10.48;;;5.97;;
28926;SDS011;16038;47.692;9.400;2024-02-15T08:50:15;13.98;;;6.45;;
28926;SDS011;16038;47.692;9.400;2024-02-15T08:52:40;11.65;;;5.35;;
28926;SDS011;16038;47.692;9.400;2024-02-15T08:55:06;11.55;;;5.47;;
28926;SDS011;16038;47.692;9.400;2024-02-15T08:57:34;17.38;;;9.57;;
28926;SDS011;16038;47.692;9.400;2024-02-15T09:00:01;9.35;;;5.10;;
28926;SDS011;16038;47.692;9.400;2024-02-15T09:02:41;16.23;;;4.22;;
28926;SDS011;16038;47.692;9.400;2024-02-15T09:05:10;8.45;;;3.63;;
28926;SDS011;16038;47.692;9.400;2024-02-15T09:07:39;15.80;;;3.80;;
28926;SDS011;16038;47.692;9.400;2024-02-15T09:10:08;9.07;;;3.42;;
28926;SDS011;16038;47.692;9.400;2024-02-15T09:12:39;6.97;;;3.65;;
28926;SDS011;16038;47.692;9.400;2024-02-15T09:15:06;12.23;;;3.90;;
28926;SDS011;16038;47.692;9.400;2024-02-15T09:17:33;18.48;;;4.72;;
28926;SDS011;16038;47.692;9.400;2024-02-15T09:20:07;9.23;;;3.75;;
28926;SDS011;16038;47.692;9.400;2024-02-15T09:22:49;9.13;;;3.58;;
28926;SDS011;16038;47.692;9.400;2024-02-15T09:25:15;6.43;;;3.20;;
28926;SDS011;16038;47.692;9.400;2024-02-15T09:27:41;11.75;;;3.42;;
28926;SDS011;16038;47.692;9.400;2024-02-15T09:30:07;10.35;;;5.75;;
28926;SDS011;16038;47.692;9.400;2024-02-15T09:32:35;8.02;;;3.53;;
28926;SDS011;16038;47.692;9.400;2024-02-15T09:35:01;9.80;;;3.78;;
28926;SDS011;16038;47.692;9.400;2024-02-15T09:37:27;9.85;;;3.10;;
28926;SDS011;16038;47.692;9.400;2024-02-15T09:39:53;13.65;;;4.22;;
28926;SDS011;16038;47.692;9.400;2024-02-15T09:42:20;9.60;;;3.13;;
28926;SDS011;16038;47.692;9.400;2024-02-15T09:44:46;7.90;;;3.30;;
28926;SDS011;16038;47.692;9.400;2024-02-15T09:47:12;11.00;;;3.17;;
28926;SDS011;16038;47.692;9.400;2024-02-15T09:49:38;21.30;;;3.20;;
28926;SDS011;16038;47.692;9.400;2024-02-15T09:52:07;7.78;;;2.45;;
28926;SDS011;16038;47.692;9.400;2024-02-15T09:54:40;14.52;;;8.05;;
28926;SDS011;16038;47.692;9.400;2024-02-15T09:57:08;8.38;;;4.25;;
28926;SDS011;16038;47.692;9.400;2024-02-15T09:59:34;6.97;;;2.40;;
28926;SDS011;16038;47.692;9.400;2024-02-15T10:02:01;7.00;;;3.28;;
28926;SDS011;16038;47.692;9.400;2024-02-15T10:04:27;6.40;;;2.75;;
28926;SDS011;16038;47.692;9.400;2024-02-15T10:06:53;4.53;;;2.22;;
28926;SDS011;16038;47.692;9.400;2024-02-15T10:09:28;11.55;;;3.72;;
28926;SDS011;16038;47.692;9.400;2024-02-15T10:11:57;12.75;;;4.20;;
28926;SDS011;16038;47.692;9.400;2024-02-15T10:14:28;5.65;;;1.98;;
28926;SDS011;16038;47.692;9.400;2024-02-15T10:16:54;4.07;;;2.03;;
28926;SDS011;16038;47.692;9.400;2024-02-15T10:19:21;5.55;;;2.90;;
28926;SDS011;16038;47.692;9.400;2024-02-15T10:21:51;7.78;;;2.95;;
28926;SDS011;16038;47.692;9.400;2024-02-15T10:26:48;11.85;;;2.75;;
28926;SDS011;16038;47.692;9.400;2024-02-15T10:29:13;8.95;;;4.35;;
28926;SDS011;16038;47.692;9.400;2024-02-15T10:31:51;23.67;;;4.45;;
28926;SDS011;16038;47.692;9.400;2024-02-15T10:34:21;11.82;;;3.22;;
28926;SDS011;16038;47.692;9.400;2024-02-15T10:36:48;14.38;;;2.45;;
28926;SDS011;16038;47.692;9.400;2024-02-15T10:39:18;12.75;;;3.35;;
28926;SDS011;16038;47.692;9.400;2024-02-15T10:44:21;4.28;;;1.80;;
28926;SDS011;16038;47.692;9.400;2024-02-15T10:46:48;5.75;;;2.40;;
28926;SDS011;16038;47.692;9.400;2024-02-15T10:49:18;6.35;;;2.03;;
28926;SDS011;16038;47.692;9.400;2024-02-15T10:51:44;7.50;;;2.08;;
28926;SDS011;16038;47.692;9.400;2024-02-15T10:54:15;5.68;;;2.03;;
28926;SDS011;16038;47.692;9.400;2024-02-15T10:56:52;3.53;;;1.67;;
28926;SDS011;16038;47.692;9.400;2024-02-15T10:59:24;7.50;;;2.85;;
28926;SDS011;16038;47.692;9.400;2024-02-15T11:01:59;23.50;;;3.67;;
28926;SDS011;16038;47.692;9.400;2024-02-15T11:04:25;5.72;;;2.60;;
28926;SDS011;16038;47.692;9.400;2024-02-15T11:06:57;6.30;;;3.28;;
28926;SDS011;16038;47.692;9.400;2024-02-15T11:09:25;11.80;;;3.90;;
28926;SDS011;16038;47.692;9.400;2024-02-15T11:11:53;7.13;;;3.28;;
28926;SDS011;16038;47.692;9.400;2024-02-15T11:14:24;12.38;;;3.38;;
28926;SDS011;16038;47.692;9.400;2024-02-15T11:16:50;5.07;;;2.53;;
28926;SDS011;16038;47.692;9.400;2024-02-15T11:19:39;8.90;;;2.60;;
28926;SDS011;16038;47.692;9.400;2024-02-15T11:22:10;5.70;;;2.15;;
28926;SDS011;16038;47.692;9.400;2024-02-15T11:24:37;3.67;;;1.92;;
28926;SDS011;16038;47.692;9.400;2024-02-15T11:27:10;4.47;;;1.50;;
28926;SDS011;16038;47.692;9.400;2024-02-15T11:29:51;3.35;;;1.98;;
28926;SDS011;16038;47.692;9.400;2024-02-15T11:35:15;4.07;;;1.80;;
28926;SDS011;16038;47.692;9.400;2024-02-15T11:40:12;11.43;;;3.58;;
28926;SDS011;16038;47.692;9.400;2024-02-15T11:42:38;18.73;;;5.30;;
28926;SDS011;16038;47.692;9.400;2024-02-15T11:45:05;12.93;;;3.58;;
28926;SDS011;16038;47.692;9.400;2024-02-15T11:47:33;21.10;;;4.75;;
28926;SDS011;16038;47.692;9.400;2024-02-15T11:50:05;15.48;;;4.50;;
28926;SDS011;16038;47.692;9.400;2024-02-15T11:52:33;15.47;;;5.27;;
28926;SDS011;16038;47.692;9.400;2024-02-15T11:55:05;6.55;;;4.35;;
28926;SDS011;16038;47.692;9.400;2024-02-15T11:57:41;13.60;;;5.40;;
28926;SDS011;16038;47.692;9.400;2024-02-15T12:00:25;21.23;;;6.47;;
28926;SDS011;16038;47.692;9.400;2024-02-15T12:03:09;12.35;;;5.03;;
28926;SDS011;16038;47.692;9.400;2024-02-15T12:05:54;9.32;;;3.13;;
28926;SDS011;16038;47.692;9.400;2024-02-15T12:08:38;8.43;;;3.55;;
28926;SDS011;16038;47.692;9.400;2024-02-15T12:11:23;7.03;;;3.50;;
28926;SDS011;16038;47.692;9.400;2024-02-15T12:14:11;8.77;;;3.72;;
28926;SDS011;16038;47.692;9.400;2024-02-15T12:17:00;5.63;;;3.00;;
28926;SDS011;16038;47.692;9.400;2024-02-15T12:19:44;5.43;;;3.08;;
28926;SDS011;16038;47.692;9.400;2024-02-15T12:22:10;6.97;;;3.53;;
28926;SDS011;16038;47.692;9.400;2024-02-15T12:24:35;24.92;;;4.45;;
28926;SDS011;16038;47.692;9.400;2024-02-15T12:27:01;11.00;;;3.35;;
28926;SDS011;16038;47.692;9.400;2024-02-15T12:29:28;10.45;;;3.35;;
28926;SDS011;16038;47.692;9.400;2024-02-15T12:31:54;8.98;;;3.50;;
28926;SDS011;16038;47.692;9.400;2024-02-15T12:34:20;11.07;;;3.83;;
28926;SDS011;16038;47.692;9.400;2024-02-15T12:36:45;13.45;;;3.38;;
28926;SDS011;16038;47.692;9.400;2024-02-15T12:39:14;7.60;;;3.58;;
28926;SDS011;16038;47.692;9.400;2024-02-15T12:41:50;15.73;;;3.70;;
28926;SDS011;16038;47.692;9.400;2024-02-15T12:44:18;10.10;;;3.50;;
28926;SDS011;16038;47.692;9.400;2024-02-15T12:46:53;14.20;;;3.40;;
28926;SDS011;16038;47.692;9.400;2024-02-15T12:51:49;7.90;;;3.10;;
28926;SDS011;16038;47.692;9.400;2024-02-15T12:54:22;7.38;;;3.20;;
28926;SDS011;16038;47.692;9.400;2024-02-15T12:56:48;6.70;;;3.08;;
28926;SDS011;16038;47.692;9.400;2024-02-15T12:59:19;8.32;;;3.15;;
28926;SDS011;16038;47.692;9.400;2024-02-15T13:01:44;7.57;;;3.20;;
28926;SDS011;16038;47.692;9.400;2024-02-15T13:04:21;9.50;;;3.88;;
28926;SDS011;16038;47.692;9.400;2024-02-15T13:06:49;7.50;;;3.33;;
28926;SDS011;16038;47.692;9.400;2024-02-15T13:09:14;7.93;;;2.90;;
28926;SDS011;16038;47.692;9.400;2024-02-15T13:11:39;9.02;;;3.30;;
28926;SDS011;16038;47.692;9.400;2024-02-15T13:14:05;7.15;;;2.03;;
28926;SDS011;16038;47.692;9.400;2024-02-15T13:16:30;11.52;;;3.17;;
28926;SDS011;16038;47.692;9.400;2024-02-15T13:18:56;6.70;;;2.63;;
28926;SDS011;16038;47.692;9.400;2024-02-15T13:21:23;9.18;;;3.72;;
28926;SDS011;16038;47.692;9.400;2024-02-15T13:23:55;8.45;;;3.05;;
28926;SDS011;16038;47.692;9.400;2024-02-15T13:26:21;10.73;;;3.95;;
28926;SDS011;16038;47.692;9.400;2024-02-15T13:28:48;8.43;;;3.25;;
28926;SDS011;16038;47.692;9.400;2024-02-15T13:31:14;8.30;;;3.03;;
28926;SDS011;16038;47.692;9.400;2024-02-15T13:33:40;5.82;;;3.08;;
28926;SDS011;16038;47.692;9.400;2024-02-15T13:36:06;7.90;;;3.20;;
28926;SDS011;16038;47.692;9.400;2024-02-15T13:38:36;3.50;;;2.03;;
28926;SDS011;16038;47.692;9.400;2024-02-15T13:41:02;4.18;;;2.30;;
28926;SDS011;16038;47.692;9.400;2024-02-15T13:43:29;5.75;;;2.10;;
28926;SDS011;16038;47.692;9.400;2024-02-15T13:45:55;34.10;;;4.20;;
28926;SDS011;16038;47.692;9.400;2024-02-15T13:48:21;4.47;;;2.30;;
28926;SDS011;16038;47.692;9.400;2024-02-15T13:50:51;5.57;;;2.00;;
28926;SDS011;16038;47.692;9.400;2024-02-15T13:53:18;13.77;;;2.40;;
28926;SDS011;16038;47.692;9.400;2024-02-15T13:55:43;4.95;;;2.40;;
28926;SDS011;16038;47.692;9.400;2024-02-15T13:58:09;4.78;;;1.80;;
28926;SDS011;16038;47.692;9.400;2024-02-15T14:00:38;9.02;;;2.42;;
28926;SDS011;16038;47.692;9.400;2024-02-15T14:03:07;9.02;;;2.78;;
28926;SDS011;16038;47.692;9.400;2024-02-15T14:05:35;6.45;;;2.08;;
28926;SDS011;16038;47.692;9.400;2024-02-15T14:08:04;7.00;;;2.47;;
28926;SDS011;16038;47.692;9.400;2024-02-15T14:10:31;9.20;;;2.92;;
28926;SDS011;16038;47.692;9.400;2024-02-15T14:12:58;14.13;;;3.60;;
28926;SDS011;16038;47.692;9.400;2024-02-15T14:15:24;11.63;;;3.63;;
28926;SDS011;16038;47.692;9.400;2024-02-15T14:17:50;8.40;;;3.30;;
28926;SDS011;16038;47.692;9.400;2024-02-15T14:20:16;6.00;;;2.80;;
28926;SDS011;16038;47.692;9.400;2024-02-15T14:22:44;15.23;;;3.67;;
28926;SDS011;16038;47.692;9.400;2024-02-15T14:25:14;8.57;;;3.63;;
28926;SDS011;16038;47.692;9.400;2024-02-15T14:27:42;11.15;;;3.60;;
28926;SDS011;16038;47.692;9.400;2024-02-15T14:30:08;10.02;;;4.22;;
28926;SDS011;16038;47.692;9.400;2024-02-15T14:32:52;6.20;;;2.75;;
28926;SDS011;16038;47.692;9.400;2024-02-15T14:35:33;7.05;;;3.60;;
28926;SDS011;16038;47.692;9.400;2024-02-15T14:38:01;7.60;;;3.55;;
28926;SDS011;16038;47.692;9.400;2024-02-15T14:40:40;10.40;;;3.83;;
28926;SDS011;16038;47.692;9.400;2024-02-15T14:43:08;11.30;;;3.95;;
28926;SDS011;16038;47.692;9.400;2024-02-15T14:45:34;15.05;;;5.53;;
28926;SDS011;16038;47.692;9.400;2024-02-15T14:48:01;10.32;;;3.85;;
28926;SDS011;16038;47.692;9.400;2024-02-15T14:50:28;8.88;;;4.40;;
28926;SDS011;16038;47.692;9.400;2024-02-15T14:52:54;6.20;;;3.28;;
28926;SDS011;16038;47.692;9.400;2024-02-15T14:55:20;7.22;;;3.70;;
28926;SDS011;16038;47.692;9.400;2024-02-15T14:57:46;6.90;;;3.05;;
28926;SDS011;16038;47.692;9.400;2024-02-15T15:00:12;5.38;;;3.03;;